createdAt,value
2023-03-07T00:00:40.289Z,12.40
2023-03-07T00:01:40.283Z,12.30
2023-03-07T00:02:40.365Z,12.20
2023-03-07T00:03:40.316Z,12.30
2023-03-07T00:04:40.264Z,12.10
2023-03-07T00:05:40.228Z,12.10
2023-03-07T00:06:40.247Z,12.40
2023-03-07T00:07:40.268Z,12.20
2023-03-07T00:08:40.201Z,12.20
2023-03-07T00:09:40.182Z,12.20
2023-03-07T00:10:40.177Z,12.10
2023-03-07T00:11:40.166Z,12.20
2023-03-07T00:12:40.188Z,12.10
2023-03-07T00:13:40.140Z,12.30
2023-03-07T00:14:40.153Z,12.30
2023-03-07T00:15:40.122Z,12.10
2023-03-07T00:16:40.117Z,12.00
2023-03-07T00:17:40.109Z,12.00
2023-03-07T00:18:40.088Z,12.20
2023-03-07T00:19:40.097Z,12.00
2023-03-07T00:20:40.131Z,12.20
2023-03-07T00:21:40.057Z,12.20
2023-03-07T00:22:40.129Z,12.10
2023-03-07T00:23:40.102Z,12.10
2023-03-07T00:24:40.044Z,12.20
2023-03-07T00:25:40.014Z,12.10
2023-03-07T00:26:40.008Z,12.20
2023-03-07T00:27:40.059Z,12.10
2023-03-07T00:28:39.992Z,12.00
2023-03-07T00:29:39.974Z,11.90
2023-03-07T00:30:39.974Z,11.90
2023-03-07T00:31:40.047Z,12.00
2023-03-07T00:32:40.078Z,12.10
2023-03-07T00:33:39.930Z,11.90
2023-03-07T00:34:39.937Z,12.00
2023-03-07T00:35:39.934Z,11.90
2023-03-07T00:36:39.900Z,12.00
2023-03-07T00:37:39.945Z,12.20
2023-03-07T00:38:40.041Z,12.00
2023-03-07T00:39:39.874Z,12.00
2023-03-07T00:40:39.856Z,12.00
2023-03-07T00:41:39.847Z,12.20
2023-03-07T00:42:39.867Z,12.00
2023-03-07T00:43:39.820Z,12.10
2023-03-07T00:44:39.822Z,12.00
2023-03-07T00:45:39.822Z,12.10
2023-03-07T00:46:39.803Z,12.00
2023-03-07T00:47:39.797Z,12.00
2023-03-07T00:48:39.795Z,12.10
2023-03-07T00:49:39.766Z,12.00
2023-03-07T00:50:39.755Z,12.00
2023-03-07T00:51:39.744Z,12.10
2023-03-07T00:52:39.749Z,12.10
2023-03-07T00:53:39.732Z,12.20
2023-03-07T00:54:39.729Z,11.90
2023-03-07T00:55:39.703Z,12.30
2023-03-07T00:56:39.691Z,12.20
2023-03-07T00:57:39.691Z,12.10
2023-03-07T00:58:39.672Z,12.00
2023-03-07T00:59:39.661Z,12.00
2023-03-07T01:00:39.697Z,12.00
2023-03-07T01:01:39.654Z,12.10
2023-03-07T01:02:39.659Z,12.00
2023-03-07T01:03:39.640Z,12.00
2023-03-07T01:04:39.613Z,11.90
2023-03-07T01:05:39.594Z,12.20
2023-03-07T01:06:39.581Z,12.00
2023-03-07T01:07:39.587Z,12.00
2023-03-07T01:08:39.567Z,12.00
2023-03-07T01:09:39.552Z,12.00
2023-03-07T01:10:39.591Z,12.00
2023-03-07T01:11:39.529Z,11.90
2023-03-07T01:12:39.545Z,11.90
2023-03-07T01:13:39.514Z,11.90
2023-03-07T01:14:39.501Z,12.00
2023-03-07T01:15:39.483Z,12.10
2023-03-07T01:16:39.577Z,12.10
2023-03-07T01:17:39.511Z,12.00
2023-03-07T01:18:39.455Z,12.00
2023-03-07T01:19:39.500Z,12.20
2023-03-07T01:20:39.440Z,12.00
2023-03-07T01:21:39.424Z,12.10
2023-03-07T01:22:39.433Z,12.00
2023-03-07T01:23:39.407Z,12.00
2023-03-07T01:24:39.404Z,12.00
2023-03-07T01:25:39.401Z,12.10
2023-03-07T01:26:39.401Z,12.20
2023-03-07T01:27:39.359Z,12.00
2023-03-07T01:28:39.354Z,12.10
2023-03-07T01:29:39.366Z,12.10
2023-03-07T01:30:39.358Z,12.30
2023-03-07T01:31:39.359Z,12.20
2023-03-07T01:32:39.336Z,12.20
2023-03-07T01:33:39.300Z,12.10
2023-03-07T01:34:39.291Z,11.90
2023-03-07T01:35:39.325Z,12.10
2023-03-07T01:36:39.371Z,12.00
2023-03-07T01:37:39.320Z,12.20
2023-03-07T01:38:39.258Z,12.20
2023-03-07T01:39:39.233Z,12.10
2023-03-07T01:40:39.249Z,12.10
2023-03-07T01:41:39.224Z,12.10
2023-03-07T01:42:39.239Z,12.30
2023-03-07T01:43:39.193Z,12.00
2023-03-07T01:44:39.190Z,12.20
2023-03-07T01:45:39.193Z,12.10
2023-03-07T01:46:39.159Z,12.20
2023-03-07T01:47:39.171Z,12.10
2023-03-07T01:48:39.145Z,12.30
2023-03-07T01:49:39.194Z,12.30
2023-03-07T01:50:39.120Z,12.10
2023-03-07T01:51:39.108Z,12.00
2023-03-07T01:52:39.107Z,11.90
2023-03-07T01:53:39.086Z,12.30
2023-03-07T01:54:39.074Z,12.00
2023-03-07T01:55:39.093Z,12.10
2023-03-07T01:56:39.049Z,12.20
2023-03-07T01:57:39.072Z,12.30
2023-03-07T01:58:39.056Z,12.10
2023-03-07T01:59:39.020Z,12.20
2023-03-07T02:00:39.013Z,12.10
2023-03-07T02:01:39.157Z,12.00
2023-03-07T02:02:39.014Z,12.20
2023-03-07T02:03:38.976Z,11.80
2023-03-07T02:04:39.051Z,11.80
2023-03-07T02:05:38.954Z,11.90
2023-03-07T02:06:38.964Z,11.70
2023-03-07T02:07:38.930Z,11.90
2023-03-07T02:08:38.956Z,11.90
2023-03-07T02:09:38.967Z,12.10
2023-03-07T02:10:38.904Z,12.10
2023-03-07T02:11:38.920Z,11.90
2023-03-07T02:12:38.903Z,12.00
2023-03-07T02:13:38.874Z,12.00
2023-03-07T02:14:38.876Z,12.10
2023-03-07T02:15:38.917Z,12.00
2023-03-07T02:16:38.862Z,12.10
2023-03-07T02:17:38.824Z,12.20
2023-03-07T02:18:38.934Z,12.10
2023-03-07T02:19:38.830Z,12.10
2023-03-07T02:20:38.795Z,12.10
2023-03-07T02:21:38.846Z,12.10
2023-03-07T02:22:38.779Z,12.10
2023-03-07T02:23:38.782Z,11.90
2023-03-07T02:24:38.757Z,12.10
2023-03-07T02:25:38.752Z,12.20
2023-03-07T02:26:38.733Z,12.20
2023-03-07T02:27:38.716Z,12.20
2023-03-07T02:28:38.742Z,12.00
2023-03-07T02:29:38.701Z,11.90
2023-03-07T02:30:38.883Z,12.00
2023-03-07T02:31:38.690Z,12.10
2023-03-07T02:32:38.734Z,12.00
2023-03-07T02:33:38.692Z,12.00
2023-03-07T02:34:38.649Z,12.10
2023-03-07T02:35:38.654Z,12.00
2023-03-07T02:36:38.623Z,12.00
2023-03-07T02:37:38.617Z,12.10
2023-03-07T02:38:38.621Z,11.90
2023-03-07T02:39:38.594Z,12.00
2023-03-07T02:40:38.579Z,12.00
2023-03-07T02:41:38.570Z,12.10
2023-03-07T02:42:38.567Z,12.00
2023-03-07T02:43:38.572Z,12.00
2023-03-07T02:44:38.542Z,11.90
2023-03-07T02:45:38.587Z,11.80
2023-03-07T02:46:38.540Z,11.90
2023-03-07T02:47:38.509Z,12.00
2023-03-07T02:48:38.523Z,11.90
2023-03-07T02:49:38.492Z,12.00
2023-03-07T02:50:38.477Z,11.90
2023-03-07T02:51:38.469Z,11.90
2023-03-07T02:52:38.460Z,11.90
2023-03-07T02:53:38.498Z,12.00
2023-03-07T02:54:38.438Z,11.80
2023-03-07T02:55:38.436Z,12.00
2023-03-07T02:56:38.413Z,11.90
2023-03-07T02:57:38.412Z,11.80
2023-03-07T02:58:38.412Z,11.90
2023-03-07T02:59:38.392Z,12.10
2023-03-07T03:00:38.376Z,12.00
2023-03-07T03:01:38.384Z,11.90
2023-03-07T03:02:38.381Z,11.90
2023-03-07T03:03:38.413Z,12.00
2023-03-07T03:04:38.362Z,12.00
2023-03-07T03:05:38.324Z,11.90
2023-03-07T03:06:38.316Z,11.90
2023-03-07T03:07:38.311Z,11.90
2023-03-07T03:08:38.311Z,12.00
2023-03-07T03:09:38.277Z,12.00
2023-03-07T03:10:38.298Z,12.00
2023-03-07T03:11:38.266Z,12.20
2023-03-07T03:12:38.248Z,12.90
2023-03-07T03:13:39.152Z,12.70
2023-03-07T03:14:38.228Z,12.00
2023-03-07T03:15:38.232Z,12.00
2023-03-07T03:16:38.212Z,12.10
2023-03-07T03:17:38.191Z,12.00
2023-03-07T03:18:38.220Z,12.20
2023-03-07T03:19:38.176Z,12.10
2023-03-07T03:20:38.165Z,11.80
2023-03-07T03:21:38.219Z,12.00
2023-03-07T03:22:38.141Z,12.40
2023-03-07T03:23:38.171Z,12.70
2023-03-07T03:24:38.117Z,12.40
2023-03-07T03:25:40.093Z,12.50
2023-03-07T03:26:38.112Z,12.60
2023-03-07T03:27:38.098Z,12.60
2023-03-07T03:28:38.104Z,12.00
2023-03-07T03:29:38.070Z,12.00
2023-03-07T03:30:38.072Z,12.20
2023-03-07T03:31:38.100Z,12.00
2023-03-07T03:32:38.111Z,12.00
2023-03-07T03:33:38.058Z,12.00
2023-03-07T03:34:38.048Z,11.80
2023-03-07T03:35:38.036Z,12.40
2023-03-07T03:36:38.014Z,11.80
2023-03-07T03:37:37.979Z,12.40
2023-03-07T03:38:37.999Z,12.10
2023-03-07T03:39:37.973Z,12.00
2023-03-07T03:40:37.954Z,12.20
2023-03-07T03:41:37.946Z,12.00
2023-03-07T03:42:37.950Z,12.40
2023-03-07T03:43:38.033Z,12.40
2023-03-07T03:44:37.908Z,11.90
2023-03-07T03:45:37.899Z,11.90
2023-03-07T03:46:37.951Z,12.00
2023-03-07T03:47:37.883Z,12.40
2023-03-07T03:48:37.956Z,12.40
2023-03-07T03:49:37.853Z,12.00
2023-03-07T03:50:37.873Z,11.90
2023-03-07T03:51:37.836Z,12.50
2023-03-07T03:52:37.833Z,12.50
2023-03-07T03:53:37.838Z,13.30
2023-03-07T03:54:37.803Z,12.20
2023-03-07T03:55:37.789Z,12.20
2023-03-07T03:56:37.785Z,13.70
2023-03-07T03:57:37.782Z,12.20
2023-03-07T03:58:37.783Z,12.00
2023-03-07T03:59:37.752Z,12.30
2023-03-07T04:00:37.740Z,12.10
2023-03-07T04:01:37.806Z,12.10
2023-03-07T04:02:37.843Z,12.40
2023-03-07T04:03:37.714Z,12.30
2023-03-07T04:04:37.714Z,12.30
2023-03-07T04:05:37.687Z,12.50
2023-03-07T04:06:37.689Z,12.40
2023-03-07T04:07:37.687Z,12.50
2023-03-07T04:08:37.651Z,12.40
2023-03-07T04:09:37.644Z,12.20
2023-03-07T04:10:37.638Z,12.30
2023-03-07T04:11:37.675Z,12.40
2023-03-07T04:12:37.648Z,12.50
2023-03-07T04:13:37.607Z,13.80
2023-03-07T04:14:37.625Z,12.60
2023-03-07T04:15:37.576Z,12.30
2023-03-07T04:16:37.621Z,12.70
2023-03-07T04:17:37.551Z,12.70
2023-03-07T04:18:37.540Z,12.30
2023-03-07T04:19:37.546Z,12.10
2023-03-07T04:20:37.524Z,12.40
2023-03-07T04:21:37.514Z,12.10
2023-03-07T04:22:37.522Z,13.00
2023-03-07T04:23:37.485Z,14.20
2023-03-07T04:24:37.501Z,12.40
2023-03-07T04:25:37.508Z,12.20
2023-03-07T04:26:37.455Z,12.70
2023-03-07T04:27:37.452Z,13.20
2023-03-07T04:28:37.440Z,12.20
2023-03-07T04:29:37.466Z,12.30
2023-03-07T04:30:37.418Z,12.10
2023-03-07T04:31:37.448Z,13.30
2023-03-07T04:32:37.457Z,12.10
2023-03-07T04:33:37.385Z,12.00
2023-03-07T04:34:37.411Z,12.60
2023-03-07T04:35:37.379Z,12.90
2023-03-07T04:36:37.357Z,12.10
2023-03-07T04:37:37.350Z,12.50
2023-03-07T04:38:37.348Z,12.60
2023-03-07T04:39:37.347Z,12.50
2023-03-07T04:40:37.308Z,12.40
2023-03-07T04:41:37.292Z,12.30
2023-03-07T04:42:37.308Z,12.70
2023-03-07T04:43:37.294Z,12.70
2023-03-07T04:44:37.314Z,12.50
2023-03-07T04:45:37.420Z,12.70
2023-03-07T04:46:37.251Z,12.80
2023-03-07T04:47:37.252Z,12.70
2023-03-07T04:48:37.220Z,12.60
2023-03-07T04:49:37.235Z,12.60
2023-03-07T04:50:37.197Z,12.60
2023-03-07T04:51:37.193Z,12.90
2023-03-07T04:52:37.171Z,12.30
2023-03-07T04:53:37.187Z,13.60
2023-03-07T04:54:37.191Z,13.00
2023-03-07T04:55:37.151Z,11.80
2023-03-07T04:56:37.130Z,12.40
2023-03-07T04:57:37.126Z,12.00
2023-03-07T04:58:37.124Z,12.40
2023-03-07T04:59:37.110Z,12.20
2023-03-07T05:00:37.105Z,11.50
2023-03-07T05:01:37.154Z,12.20
2023-03-07T05:02:37.064Z,12.60
2023-03-07T05:03:37.094Z,12.20
2023-03-07T05:04:37.113Z,11.60
2023-03-07T05:05:37.796Z,12.30
2023-03-07T05:06:37.033Z,12.70
2023-03-07T05:07:37.020Z,11.20
2023-03-07T05:08:37.020Z,11.70
2023-03-07T05:09:36.994Z,13.10
2023-03-07T05:10:37.102Z,12.60
2023-03-07T05:11:36.976Z,12.50
2023-03-07T05:12:36.966Z,12.30
2023-03-07T05:13:37.003Z,11.40
2023-03-07T05:14:36.965Z,12.40
2023-03-07T05:15:36.955Z,12.00
2023-03-07T05:16:36.925Z,11.80
2023-03-07T05:17:36.914Z,11.40
2023-03-07T05:18:36.892Z,11.50
2023-03-07T05:19:36.913Z,13.80
2023-03-07T05:20:36.885Z,11.50
2023-03-07T05:21:36.883Z,11.70
2023-03-07T05:22:36.853Z,12.30
2023-03-07T05:23:36.842Z,11.30
2023-03-07T05:24:36.845Z,11.50
2023-03-07T05:25:36.823Z,11.90
2023-03-07T05:26:36.841Z,12.10
2023-03-07T05:27:36.806Z,12.10
2023-03-07T05:28:36.793Z,11.20
2023-03-07T05:29:36.810Z,12.50
2023-03-07T05:30:36.763Z,11.50
2023-03-07T05:31:36.824Z,12.70
2023-03-07T05:32:36.838Z,12.00
2023-03-07T05:33:36.750Z,11.70
2023-03-07T05:34:36.791Z,12.20
2023-03-07T05:35:36.785Z,12.40
2023-03-07T05:36:36.712Z,12.70
2023-03-07T05:37:36.695Z,11.80
2023-03-07T05:38:36.699Z,12.60
2023-03-07T05:39:36.711Z,12.50
2023-03-07T05:40:36.675Z,11.60
2023-03-07T05:41:36.652Z,12.30
2023-03-07T05:42:36.661Z,11.80
2023-03-07T05:43:36.643Z,11.70
2023-03-07T05:44:36.670Z,13.10
2023-03-07T05:45:36.609Z,11.50
2023-03-07T05:46:36.738Z,11.90
2023-03-07T05:47:36.598Z,12.40
2023-03-07T05:48:36.576Z,11.40
2023-03-07T05:49:36.578Z,11.50
2023-03-07T05:50:36.561Z,11.50
2023-03-07T05:51:36.547Z,11.60
2023-03-07T05:52:36.544Z,11.40
2023-03-07T05:53:36.530Z,12.10
2023-03-07T05:54:36.567Z,11.50
2023-03-07T05:55:36.500Z,11.80
2023-03-07T05:56:36.496Z,11.20
2023-03-07T05:57:36.479Z,12.00
2023-03-07T05:58:36.557Z,12.50
2023-03-07T05:59:36.487Z,11.60
2023-03-07T06:00:36.467Z,12.00
2023-03-07T06:01:36.443Z,11.70
2023-03-07T06:02:36.426Z,11.90
2023-03-07T06:03:36.534Z,12.40
2023-03-07T06:04:36.488Z,11.50
2023-03-07T06:05:36.398Z,12.60
2023-03-07T06:06:36.379Z,12.00
2023-03-07T06:07:36.438Z,11.80
2023-03-07T06:08:36.355Z,12.20
2023-03-07T06:09:36.371Z,11.70
2023-03-07T06:10:36.342Z,11.70
2023-03-07T06:11:36.327Z,12.90
2023-03-07T06:12:36.329Z,12.30
2023-03-07T06:13:36.304Z,11.90
2023-03-07T06:14:36.390Z,11.70
2023-03-07T06:15:36.285Z,12.60
2023-03-07T06:16:36.280Z,12.80
2023-03-07T06:17:36.268Z,11.70
2023-03-07T06:18:36.250Z,12.30
2023-03-07T06:19:36.315Z,13.00
2023-03-07T06:20:36.229Z,11.80
2023-03-07T06:21:36.220Z,12.20
2023-03-07T06:22:36.209Z,13.30
2023-03-07T06:23:36.237Z,12.50
2023-03-07T06:24:36.224Z,12.40
2023-03-07T06:25:36.187Z,12.40
2023-03-07T06:26:36.164Z,13.60
2023-03-07T06:27:36.179Z,12.10
2023-03-07T06:28:36.150Z,12.50
2023-03-07T06:29:36.160Z,13.00
2023-03-07T06:30:36.145Z,13.00
2023-03-07T06:31:36.170Z,12.40
2023-03-07T06:32:36.163Z,13.20
2023-03-07T06:33:36.096Z,12.60
2023-03-07T06:34:36.096Z,13.20
2023-03-07T06:35:36.108Z,13.80
2023-03-07T06:36:36.070Z,12.50
2023-03-07T06:37:36.057Z,12.80
2023-03-07T06:38:36.036Z,12.90
2023-03-07T06:39:36.056Z,13.10
2023-03-07T06:40:36.030Z,12.90
2023-03-07T06:41:36.021Z,12.60
2023-03-07T06:42:36.026Z,13.50
2023-03-07T06:43:35.986Z,13.40
2023-03-07T06:44:35.988Z,13.00
2023-03-07T06:45:35.975Z,12.70
2023-03-07T06:46:35.999Z,13.90
2023-03-07T06:47:35.961Z,13.00
2023-03-07T06:48:35.957Z,12.90
2023-03-07T06:49:35.940Z,12.60
2023-03-07T06:50:35.981Z,13.20
2023-03-07T06:51:37.844Z,12.80
2023-03-07T06:52:35.900Z,12.80
2023-03-07T06:53:35.902Z,13.60
2023-03-07T06:54:35.893Z,12.70
2023-03-07T06:55:35.865Z,13.30
2023-03-07T06:56:35.894Z,12.70
2023-03-07T06:57:35.841Z,13.40
2023-03-07T06:58:35.849Z,12.90
2023-03-07T06:59:35.826Z,13.40
2023-03-07T07:00:35.819Z,12.80
2023-03-07T07:01:35.861Z,13.10
2023-03-07T07:02:35.998Z,13.20
2023-03-07T07:03:35.848Z,12.80
2023-03-07T07:04:35.765Z,13.50
2023-03-07T07:05:35.798Z,13.60
2023-03-07T07:06:35.746Z,14.10
2023-03-07T07:07:35.746Z,12.90
2023-03-07T07:08:35.738Z,13.40
2023-03-07T07:09:35.717Z,12.70
2023-03-07T07:10:35.711Z,13.20
2023-03-07T07:11:35.689Z,13.70
2023-03-07T07:12:35.699Z,13.50
2023-03-07T07:13:35.696Z,13.40
2023-03-07T07:14:35.657Z,13.40
2023-03-07T07:15:35.698Z,13.00
2023-03-07T07:16:35.679Z,13.50
2023-03-07T07:17:35.688Z,13.70
2023-03-07T07:18:35.637Z,13.80
2023-03-07T07:19:35.618Z,13.30
2023-03-07T07:20:35.612Z,13.20
2023-03-07T07:21:35.617Z,13.80
2023-03-07T07:22:35.624Z,13.60
2023-03-07T07:23:35.565Z,13.30
2023-03-07T07:24:35.548Z,13.30
2023-03-07T07:25:35.557Z,13.50
2023-03-07T07:26:35.526Z,14.00
2023-03-07T07:27:35.529Z,13.00
2023-03-07T07:28:35.505Z,13.90
2023-03-07T07:29:35.496Z,14.30
2023-03-07T07:30:35.512Z,13.30
2023-03-07T07:31:35.629Z,13.70
2023-03-07T07:32:35.914Z,12.70
2023-03-07T07:33:35.472Z,13.40
2023-03-07T07:34:35.469Z,14.20
2023-03-07T07:35:35.503Z,13.60
2023-03-07T07:36:35.426Z,12.70
2023-03-07T07:37:35.414Z,13.20
2023-03-07T07:38:35.400Z,13.50
2023-03-07T07:39:35.393Z,13.10
2023-03-07T07:40:35.412Z,13.30
2023-03-07T07:41:35.384Z,13.40
2023-03-07T07:42:35.359Z,13.40
2023-03-07T07:43:35.347Z,13.50
2023-03-07T07:44:35.375Z,13.20
2023-03-07T07:45:35.414Z,13.50
2023-03-07T07:46:35.324Z,13.10
2023-03-07T07:47:35.311Z,13.20
2023-03-07T07:48:35.309Z,12.80
2023-03-07T07:49:35.283Z,13.50
2023-03-07T07:50:35.333Z,13.70
2023-03-07T07:51:35.301Z,13.20
2023-03-07T07:52:35.259Z,13.00
2023-03-07T07:53:35.258Z,13.30
2023-03-07T07:54:35.233Z,13.40
2023-03-07T07:55:35.239Z,14.60
2023-03-07T07:56:35.213Z,13.40
2023-03-07T07:57:35.211Z,13.20
2023-03-07T07:58:35.193Z,13.30
2023-03-07T07:59:35.177Z,13.20
2023-03-07T08:00:35.186Z,13.90
2023-03-07T08:01:35.158Z,12.70
2023-03-07T08:02:35.181Z,13.10
2023-03-07T08:03:35.173Z,12.80
2023-03-07T08:04:35.130Z,13.70
2023-03-07T08:05:35.144Z,12.70
2023-03-07T08:06:35.128Z,12.70
2023-03-07T08:07:35.107Z,13.20
2023-03-07T08:08:35.095Z,13.30
2023-03-07T08:09:35.092Z,12.70
2023-03-07T08:10:35.082Z,12.70
2023-03-07T08:11:35.049Z,13.20
2023-03-07T08:12:35.054Z,12.70
2023-03-07T08:13:35.026Z,12.60
2023-03-07T08:14:35.040Z,12.80
2023-03-07T08:15:35.111Z,12.50
2023-03-07T08:16:35.002Z,13.00
2023-03-07T08:17:34.985Z,12.70
2023-03-07T08:18:34.972Z,13.30
2023-03-07T08:19:34.962Z,13.40
2023-03-07T08:20:34.973Z,13.00
2023-03-07T08:21:34.948Z,12.30
2023-03-07T08:22:34.959Z,12.70
2023-03-07T08:23:34.916Z,13.00
2023-03-07T08:24:40.627Z,12.30
2023-03-07T08:25:35.919Z,13.20
2023-03-07T08:26:34.893Z,12.80
2023-03-07T08:27:34.894Z,12.60
2023-03-07T08:28:34.871Z,13.40
2023-03-07T08:29:34.860Z,13.10
2023-03-07T08:30:34.860Z,12.60
2023-03-07T08:31:34.884Z,12.10
2023-03-07T08:32:34.892Z,12.60
2023-03-07T08:33:34.811Z,13.30
2023-03-07T08:34:34.802Z,12.80
2023-03-07T08:35:34.837Z,12.80
2023-03-07T08:36:34.793Z,14.00
2023-03-07T08:37:34.769Z,12.90
2023-03-07T08:38:34.886Z,12.60
2023-03-07T08:39:34.762Z,12.90
2023-03-07T08:40:34.775Z,13.00
2023-03-07T08:41:34.735Z,12.30
2023-03-07T08:42:34.771Z,13.40
2023-03-07T08:43:34.711Z,13.00
2023-03-07T08:44:34.736Z,12.60
2023-03-07T08:45:34.700Z,13.70
2023-03-07T08:46:34.686Z,14.70
2023-03-07T08:47:34.658Z,12.70
2023-03-07T08:48:34.647Z,12.90
2023-03-07T08:49:34.644Z,13.10
2023-03-07T08:50:34.644Z,12.70
2023-03-07T08:51:34.617Z,12.80
2023-03-07T08:52:34.601Z,13.60
2023-03-07T08:53:34.598Z,13.70
2023-03-07T08:54:34.609Z,12.80
2023-03-07T08:55:34.578Z,12.70
2023-03-07T08:56:34.573Z,13.30
2023-03-07T08:57:34.546Z,13.20
2023-03-07T08:58:34.537Z,12.70
2023-03-07T08:59:34.529Z,12.50
2023-03-07T09:00:34.524Z,12.90
2023-03-07T09:01:34.540Z,13.40
2023-03-07T09:02:34.493Z,12.40
2023-03-07T09:03:34.477Z,12.70
2023-03-07T09:04:34.532Z,12.60
2023-03-07T09:05:34.478Z,13.30
2023-03-07T09:06:34.450Z,12.40
2023-03-07T09:07:34.444Z,12.90
2023-03-07T09:08:34.426Z,13.90
2023-03-07T09:09:34.412Z,12.70
2023-03-07T09:10:34.465Z,13.00
2023-03-07T09:11:34.398Z,13.70
2023-03-07T09:12:34.388Z,12.90
2023-03-07T09:13:43.041Z,12.40
2023-03-07T09:14:35.362Z,13.40
2023-03-07T09:15:34.402Z,12.80
2023-03-07T09:16:34.411Z,13.00
2023-03-07T09:17:34.326Z,13.30
2023-03-07T09:18:34.344Z,13.00
2023-03-07T09:19:34.306Z,12.50
2023-03-07T09:20:34.347Z,13.00
2023-03-07T09:21:34.294Z,13.00
2023-03-07T09:22:34.313Z,12.30
2023-03-07T09:23:34.270Z,13.00
2023-03-07T09:24:34.260Z,12.70
2023-03-07T09:25:34.278Z,12.70
2023-03-07T09:26:34.271Z,12.80
2023-03-07T09:27:34.222Z,12.90
2023-03-07T09:28:34.217Z,13.50
2023-03-07T09:29:34.199Z,12.50
2023-03-07T09:30:34.278Z,12.70
2023-03-07T09:31:34.238Z,13.40
2023-03-07T09:32:34.198Z,13.00
2023-03-07T09:33:34.161Z,12.30
2023-03-07T09:34:34.152Z,12.60
2023-03-07T09:35:34.200Z,13.00
2023-03-07T09:36:34.133Z,12.60
2023-03-07T09:37:34.115Z,12.90
2023-03-07T09:38:34.115Z,12.80
2023-03-07T09:39:34.096Z,12.10
2023-03-07T09:40:34.103Z,12.50
2023-03-07T09:41:34.139Z,14.50
2023-03-07T09:42:34.080Z,12.60
2023-03-07T09:43:34.056Z,12.10
2023-03-07T09:44:34.041Z,12.90
2023-03-07T09:45:34.106Z,12.40
2023-03-07T09:46:34.028Z,12.50
2023-03-07T09:47:34.009Z,12.70
2023-03-07T09:48:34.010Z,12.40
2023-03-07T09:49:33.992Z,12.40
2023-03-07T09:50:34.018Z,13.80
2023-03-07T09:51:33.966Z,12.70
2023-03-07T09:52:33.953Z,12.10
2023-03-07T09:53:33.954Z,13.50
2023-03-07T09:54:41.638Z,13.50
2023-03-07T09:55:34.271Z,12.40
2023-03-07T09:56:33.910Z,12.60
2023-03-07T09:57:33.893Z,12.80
2023-03-07T09:58:33.911Z,12.80
2023-03-07T09:59:33.877Z,12.50
2023-03-07T10:00:33.887Z,12.30
2023-03-07T10:01:33.850Z,12.30
2023-03-07T10:02:33.847Z,12.40
2023-03-07T10:03:33.888Z,13.50
2023-03-07T10:04:33.851Z,12.60
2023-03-07T10:05:33.826Z,12.20
2023-03-07T10:06:33.800Z,12.50
2023-03-07T10:07:33.787Z,12.80
2023-03-07T10:08:33.792Z,12.20
2023-03-07T10:09:33.763Z,12.50
2023-03-07T10:10:33.769Z,12.70
2023-03-07T10:11:33.780Z,12.10
2023-03-07T10:12:33.734Z,13.20
2023-03-07T10:13:33.720Z,12.80
2023-03-07T10:14:33.766Z,12.90
2023-03-07T10:15:33.760Z,12.40
2023-03-07T10:16:33.757Z,13.40
2023-03-07T10:17:33.674Z,12.50
2023-03-07T10:18:33.666Z,12.40
2023-03-07T10:19:33.660Z,13.50
2023-03-07T10:20:33.648Z,12.50
2023-03-07T10:21:33.663Z,13.30
2023-03-07T10:22:33.633Z,12.70
2023-03-07T10:23:33.626Z,12.40
2023-03-07T10:24:33.608Z,12.40
2023-03-07T10:25:33.603Z,12.80
2023-03-07T10:26:33.582Z,12.50
2023-03-07T10:27:33.569Z,12.30
2023-03-07T10:28:33.555Z,12.30
2023-03-07T10:29:33.554Z,12.30
2023-03-07T10:30:33.573Z,12.10
2023-03-07T10:31:33.527Z,13.00
2023-03-07T10:32:33.566Z,13.10
2023-03-07T10:33:33.498Z,12.30
2023-03-07T10:34:33.485Z,12.20
2023-03-07T10:35:33.513Z,13.50
2023-03-07T10:36:33.465Z,12.90
2023-03-07T10:37:33.451Z,11.90
2023-03-07T10:38:33.452Z,12.30
2023-03-07T10:39:33.429Z,12.10
2023-03-07T10:40:33.505Z,12.40
2023-03-07T10:41:33.406Z,11.80
2023-03-07T10:42:33.400Z,12.10
2023-03-07T10:43:33.388Z,12.50
2023-03-07T10:44:33.390Z,12.80
2023-03-07T10:45:33.365Z,12.00
2023-03-07T10:46:33.466Z,12.30
2023-03-07T10:47:33.347Z,13.00
2023-03-07T10:48:33.332Z,12.60
2023-03-07T10:49:33.346Z,11.60
2023-03-07T10:50:33.309Z,12.10
2023-03-07T10:51:33.308Z,12.90
2023-03-07T10:52:33.286Z,11.70
2023-03-07T10:53:33.276Z,11.90
2023-03-07T10:54:33.266Z,11.70
2023-03-07T10:55:33.256Z,12.60
2023-03-07T10:56:33.256Z,12.30
2023-03-07T10:57:33.232Z,12.90
2023-03-07T10:58:33.222Z,12.10
2023-03-07T10:59:33.211Z,11.70
2023-03-07T11:00:33.197Z,13.20
2023-03-07T11:01:33.350Z,12.90
2023-03-07T11:02:33.198Z,12.00
2023-03-07T11:03:46.121Z,11.60
2023-03-07T11:04:34.243Z,11.80
2023-03-07T11:05:33.144Z,12.90
2023-03-07T11:06:33.157Z,11.90
2023-03-07T11:07:33.123Z,12.90
2023-03-07T11:08:33.114Z,12.20
2023-03-07T11:09:33.110Z,12.00
2023-03-07T11:10:33.104Z,12.90
2023-03-07T11:11:33.092Z,12.90
2023-03-07T11:12:33.073Z,12.20
2023-03-07T11:13:33.059Z,12.70
2023-03-07T11:14:33.045Z,12.60
2023-03-07T11:15:33.065Z,12.40
2023-03-07T11:16:33.222Z,12.20
2023-03-07T11:17:33.015Z,12.80
2023-03-07T11:18:33.042Z,13.20
2023-03-07T11:19:32.997Z,12.90
2023-03-07T11:20:32.981Z,12.80
2023-03-07T11:21:33.042Z,13.20
2023-03-07T11:22:32.957Z,13.00
2023-03-07T11:23:32.968Z,13.60
2023-03-07T11:24:32.946Z,12.90
2023-03-07T11:25:32.924Z,13.00
2023-03-07T11:26:33.051Z,13.10
2023-03-07T11:27:32.904Z,13.60
2023-03-07T11:28:32.898Z,12.80
2023-03-07T11:29:32.882Z,12.30
2023-03-07T11:30:32.873Z,13.30
2023-03-07T11:31:32.873Z,12.40
2023-03-07T11:32:32.891Z,12.40
2023-03-07T11:33:32.838Z,13.10
2023-03-07T11:34:32.857Z,12.30
2023-03-07T11:35:32.844Z,12.20
2023-03-07T11:36:32.824Z,13.70
2023-03-07T11:37:32.795Z,13.20
2023-03-07T11:38:32.785Z,13.30
2023-03-07T11:39:32.774Z,13.10
2023-03-07T11:40:32.783Z,13.50
2023-03-07T11:41:32.765Z,13.20
2023-03-07T11:42:32.795Z,12.90
2023-03-07T11:43:32.732Z,13.10
2023-03-07T11:44:32.729Z,12.90
2023-03-07T11:45:32.713Z,14.00
2023-03-07T11:46:32.875Z,12.80
2023-03-07T11:47:32.690Z,13.60
2023-03-07T11:48:32.678Z,13.40
2023-03-07T11:49:32.667Z,12.90
2023-03-07T11:50:32.679Z,13.40
2023-03-07T11:51:32.668Z,13.40
2023-03-07T11:52:32.678Z,13.50
2023-03-07T11:53:32.694Z,12.90
2023-03-07T11:54:32.614Z,13.00
2023-03-07T11:55:34.916Z,13.60
2023-03-07T11:56:32.614Z,13.30
2023-03-07T11:57:32.588Z,13.10
2023-03-07T11:58:32.575Z,13.30
2023-03-07T11:59:32.575Z,13.80
2023-03-07T12:00:32.608Z,13.40
2023-03-07T12:01:32.568Z,13.00
2023-03-07T12:02:32.551Z,13.30
2023-03-07T12:03:32.523Z,13.60
2023-03-07T12:04:32.516Z,13.10
2023-03-07T12:05:32.518Z,13.40
2023-03-07T12:06:32.547Z,13.10
2023-03-07T12:07:32.477Z,13.50
2023-03-07T12:08:32.472Z,13.50
2023-03-07T12:09:32.458Z,13.10
2023-03-07T12:10:32.447Z,13.40
2023-03-07T12:11:32.461Z,13.40
2023-03-07T12:12:32.430Z,14.00
2023-03-07T12:13:32.415Z,13.00
2023-03-07T12:14:32.438Z,12.80
2023-03-07T12:15:32.396Z,13.80
2023-03-07T12:16:32.519Z,13.80
2023-03-07T12:17:32.388Z,13.20
2023-03-07T12:18:32.367Z,13.00
2023-03-07T12:19:32.811Z,13.00
2023-03-07T12:20:32.340Z,13.50
2023-03-07T12:21:32.355Z,13.40
2023-03-07T12:22:32.346Z,14.30
2023-03-07T12:23:32.310Z,13.00
2023-03-07T12:24:32.296Z,12.90
2023-03-07T12:25:32.308Z,14.30
2023-03-07T12:26:32.288Z,12.90
2023-03-07T12:27:32.267Z,12.80
2023-03-07T12:28:32.253Z,12.80
2023-03-07T12:29:32.266Z,12.90
2023-03-07T12:30:32.235Z,13.30
2023-03-07T12:31:32.449Z,12.90
2023-03-07T12:32:32.514Z,13.10
2023-03-07T12:33:32.304Z,13.20
2023-03-07T12:34:32.209Z,12.70
2023-03-07T12:35:32.199Z,13.10
2023-03-07T12:36:32.230Z,12.90
2023-03-07T12:37:32.165Z,13.20
2023-03-07T12:38:32.234Z,13.10
2023-03-07T12:39:32.151Z,13.20
2023-03-07T12:40:32.130Z,13.00
2023-03-07T12:41:32.162Z,13.20
2023-03-07T12:42:32.110Z,13.70
2023-03-07T12:43:32.100Z,13.10
2023-03-07T12:44:32.090Z,13.40
2023-03-07T12:45:32.232Z,13.00
2023-03-07T12:46:32.157Z,13.50
2023-03-07T12:47:32.069Z,13.00
2023-03-07T12:48:32.083Z,12.80
2023-03-07T12:49:37.982Z,13.10
2023-03-07T12:50:33.039Z,13.60
2023-03-07T12:51:32.025Z,13.50
2023-03-07T12:52:32.004Z,12.80